createdAt,value
2019-03-20T00:00:14.166Z,89.50
2019-03-20T00:02:42.244Z,89.30
2019-03-20T00:05:10.946Z,89.40
2019-03-20T00:07:39.717Z,89.50
2019-03-20T00:10:09.237Z,89.20
2019-03-20T00:12:38.625Z,89.00
2019-03-20T00:15:09.107Z,89.10
2019-03-20T00:17:37.838Z,89.50
2019-03-20T00:20:07.539Z,90.00
2019-03-20T00:22:36.325Z,90.00
2019-03-20T00:25:05.201Z,90.20
2019-03-20T00:27:34.383Z,90.30
2019-03-20T00:30:03.231Z,90.20
2019-03-20T00:32:33.029Z,90.40
2019-03-20T00:35:01.804Z,90.30
2019-03-20T00:37:42.678Z,90.10
2019-03-20T00:40:11.754Z,90.40
2019-03-20T00:42:40.541Z,90.70
2019-03-20T00:45:10.456Z,90.70
2019-03-20T00:47:39.257Z,90.60
2019-03-20T00:50:10.910Z,90.40
2019-03-20T00:52:40.855Z,90.30
2019-03-20T00:55:09.707Z,90.30
2019-03-20T00:57:38.618Z,90.20
2019-03-20T01:00:11.706Z,90.30
2019-03-20T01:02:40.484Z,90.30
2019-03-20T01:05:12.795Z,90.30
2019-03-20T01:07:39.441Z,90.20
2019-03-20T01:10:10.111Z,90.10
2019-03-20T01:12:39.244Z,90.20
2019-03-20T01:15:08.400Z,90.10
2019-03-20T01:17:37.612Z,89.70
2019-03-20T01:20:18.518Z,89.70
2019-03-20T01:22:49.219Z,90.00
2019-03-20T01:25:24.021Z,89.50
2019-03-20T01:27:54.331Z,89.70
2019-03-20T01:30:36.799Z,90.20
2019-03-20T01:33:08.438Z,90.40
2019-03-20T01:35:37.636Z,90.60
2019-03-20T01:38:06.519Z,91.00
2019-03-20T01:40:35.499Z,91.20
2019-03-20T01:43:04.682Z,91.30
2019-03-20T01:45:33.502Z,91.50
2019-03-20T01:48:02.701Z,91.40
2019-03-20T01:50:31.382Z,91.60
2019-03-20T01:53:00.183Z,91.80
2019-03-20T01:55:33.336Z,91.70
2019-03-20T01:58:03.683Z,91.50
2019-03-20T02:00:32.470Z,91.10
2019-03-20T02:03:01.281Z,91.10
2019-03-20T02:05:35.696Z,91.20
2019-03-20T02:08:00.151Z,91.20
2019-03-20T02:10:28.974Z,91.10
2019-03-20T02:12:58.894Z,91.20
2019-03-20T02:15:37.610Z,91.00
2019-03-20T02:17:55.584Z,90.90
2019-03-20T02:20:24.999Z,90.80
2019-03-20T02:22:53.934Z,90.90
2019-03-20T02:25:22.668Z,90.90
2019-03-20T02:27:51.398Z,90.60
2019-03-20T02:30:20.192Z,90.80
2019-03-20T02:32:49.292Z,90.90
2019-03-20T02:35:19.082Z,91.00
2019-03-20T02:37:47.870Z,91.10
2019-03-20T02:40:16.669Z,91.10
2019-03-20T02:42:46.160Z,91.10
2019-03-20T02:45:14.976Z,91.30
2019-03-20T02:47:43.762Z,91.30
2019-03-20T02:50:12.609Z,91.10
2019-03-20T02:52:41.610Z,91.10
2019-03-20T02:55:11.442Z,90.80
2019-03-20T02:57:40.275Z,90.70
2019-03-20T03:00:11.048Z,90.70
2019-03-20T03:02:39.199Z,90.30
2019-03-20T03:05:08.603Z,90.30
2019-03-20T03:07:37.423Z,90.30
2019-03-20T03:10:06.772Z,90.40
2019-03-20T03:12:35.484Z,90.70
2019-03-20T03:15:04.610Z,90.20
2019-03-20T03:17:33.617Z,90.00
2019-03-20T03:20:02.657Z,89.70
2019-03-20T03:22:31.375Z,89.80
2019-03-20T03:25:01.187Z,89.50
2019-03-20T03:27:29.976Z,89.20
2019-03-20T03:29:59.023Z,89.70
2019-03-20T03:32:27.822Z,90.10
2019-03-20T03:34:56.855Z,89.90
2019-03-20T03:37:25.920Z,89.60
2019-03-20T03:39:55.117Z,89.50
2019-03-20T03:42:25.027Z,89.40
2019-03-20T03:44:57.782Z,89.20
2019-03-20T03:47:27.559Z,89.20
2019-03-20T03:49:56.336Z,89.50
2019-03-20T03:52:26.159Z,90.00
2019-03-20T03:54:56.388Z,90.20
2019-03-20T03:57:26.582Z,90.50
2019-03-20T03:59:55.390Z,90.60
2019-03-20T04:02:25.314Z,90.40
2019-03-20T04:04:55.016Z,90.30
2019-03-20T04:07:24.401Z,90.10
2019-03-20T04:09:53.201Z,90.00
2019-03-20T04:12:22.089Z,90.00
2019-03-20T04:14:51.085Z,89.60
2019-03-20T04:17:24.187Z,90.10
2019-03-20T04:19:52.966Z,90.30
2019-03-20T04:22:21.754Z,90.40
2019-03-20T04:24:50.550Z,90.40
2019-03-20T04:27:19.332Z,90.50
2019-03-20T04:29:48.719Z,90.40
2019-03-20T04:32:17.788Z,90.20
2019-03-20T04:34:46.600Z,90.30
2019-03-20T04:37:16.412Z,90.30
2019-03-20T04:39:45.199Z,90.20
2019-03-20T04:42:14.285Z,90.70
2019-03-20T04:44:43.381Z,90.90
2019-03-20T04:47:12.176Z,91.10
2019-03-20T04:49:41.373Z,91.10
2019-03-20T04:52:10.578Z,91.30
2019-03-20T04:54:39.383Z,91.50
2019-03-20T04:57:09.448Z,91.60
2019-03-20T04:59:40.819Z,91.60
2019-03-20T05:02:09.769Z,91.50
2019-03-20T05:04:38.522Z,91.30
2019-03-20T05:07:07.307Z,91.30
2019-03-20T05:09:37.343Z,91.20
2019-03-20T05:12:06.613Z,91.30
2019-03-20T05:14:35.692Z,91.40
2019-03-20T05:17:04.402Z,91.30
2019-03-20T05:19:37.464Z,91.30
2019-03-20T05:22:06.560Z,91.20
2019-03-20T05:24:35.643Z,91.00
2019-03-20T05:27:04.474Z,91.00
2019-03-20T05:29:33.243Z,91.30
2019-03-20T05:32:02.052Z,91.60
2019-03-20T05:34:30.836Z,91.50
2019-03-20T05:37:09.813Z,91.30
2019-03-20T05:39:29.438Z,91.10
2019-03-20T05:41:58.478Z,91.30
2019-03-20T05:44:27.309Z,91.40
2019-03-20T05:46:56.746Z,91.30
2019-03-20T05:49:26.682Z,91.30
2019-03-20T05:51:55.677Z,91.30
2019-03-20T05:54:25.019Z,91.30
2019-03-20T05:56:53.832Z,91.20
2019-03-20T05:59:22.574Z,91.10
2019-03-20T06:01:51.394Z,91.10
2019-03-20T06:04:20.186Z,91.00
2019-03-20T06:06:49.989Z,91.00
2019-03-20T06:09:19.181Z,91.30
2019-03-20T06:11:49.605Z,91.40
2019-03-20T06:14:19.397Z,91.30
2019-03-20T06:16:48.227Z,91.50
2019-03-20T06:19:16.954Z,91.70
2019-03-20T06:21:45.683Z,91.90
2019-03-20T06:24:14.469Z,91.40
2019-03-20T06:26:48.743Z,91.00
2019-03-20T06:29:19.994Z,90.80
2019-03-20T06:31:46.855Z,90.10
2019-03-20T06:34:15.927Z,88.10
2019-03-20T06:36:44.659Z,86.70
2019-03-20T06:39:13.418Z,85.00
2019-03-20T06:41:43.690Z,84.50
2019-03-20T06:44:12.689Z,81.50
2019-03-20T06:46:42.477Z,80.30
2019-03-20T06:49:11.575Z,78.60
2019-03-20T06:51:40.786Z,77.90
2019-03-20T06:54:09.552Z,75.10
2019-03-20T06:56:38.909Z,74.80
2019-03-20T06:59:49.460Z,73.00
2019-03-20T07:02:20.224Z,72.00
2019-03-20T07:05:29.582Z,69.30
2019-03-20T07:07:58.400Z,69.70
2019-03-20T07:10:40.766Z,72.90
2019-03-20T07:13:09.894Z,71.50
2019-03-20T07:15:40.613Z,71.10
2019-03-20T07:18:08.929Z,69.70
2019-03-20T07:20:37.664Z,72.60
2019-03-20T07:23:07.489Z,70.70
2019-03-20T07:25:36.267Z,69.80
2019-03-20T07:28:05.076Z,67.00
2019-03-20T07:30:34.075Z,65.60
2019-03-20T07:33:02.855Z,63.10
2019-03-20T07:35:32.701Z,60.90
2019-03-20T07:38:01.692Z,62.20
2019-03-20T07:40:31.707Z,66.80
2019-03-20T07:43:08.732Z,64.20
2019-03-20T07:45:29.286Z,65.10
2019-03-20T07:47:58.281Z,61.70
2019-03-20T07:50:27.316Z,61.90
2019-03-20T07:52:56.122Z,62.70
2019-03-20T07:55:24.906Z,62.20
2019-03-20T07:57:53.689Z,60.00
2019-03-20T08:00:23.506Z,56.80
2019-03-20T08:02:52.486Z,53.90
2019-03-20T08:05:29.241Z,56.30
2019-03-20T08:07:50.076Z,56.20
2019-03-20T08:10:20.989Z,55.20
2019-03-20T08:12:50.094Z,56.30
2019-03-20T08:15:19.085Z,55.90
2019-03-20T08:17:47.877Z,53.90
2019-03-20T08:20:16.856Z,52.10
2019-03-20T08:22:46.021Z,53.50
2019-03-20T08:25:15.046Z,53.20
2019-03-20T08:27:43.849Z,54.30
2019-03-20T08:30:13.892Z,51.70
2019-03-20T08:32:42.432Z,49.10
2019-03-20T08:35:12.170Z,50.10
2019-03-20T08:37:41.987Z,48.20
2019-03-20T08:40:11.457Z,48.30
2019-03-20T08:42:40.870Z,48.50
2019-03-20T08:45:10.817Z,48.20
2019-03-20T08:47:43.378Z,45.40
2019-03-20T08:50:14.639Z,45.10
2019-03-20T08:52:43.405Z,45.30
2019-03-20T08:55:13.430Z,46.10
2019-03-20T09:00:31.768Z,44.50
2019-03-20T09:03:03.046Z,41.00
2019-03-20T09:05:32.376Z,41.20
2019-03-20T09:08:02.045Z,42.50
2019-03-20T09:10:38.061Z,40.20
2019-03-20T09:13:07.330Z,38.80
2019-03-20T09:15:36.096Z,37.60
2019-03-20T09:18:05.705Z,39.00
2019-03-20T09:20:34.470Z,39.20
2019-03-20T09:23:03.335Z,39.10
2019-03-20T09:25:32.443Z,37.60
2019-03-20T09:28:02.181Z,35.80
2019-03-20T09:30:33.107Z,36.10
2019-03-20T09:33:03.426Z,35.10
2019-03-20T09:35:32.547Z,35.20
2019-03-20T09:38:01.313Z,36.40
2019-03-20T09:40:30.510Z,35.90
2019-03-20T09:42:59.333Z,36.60
2019-03-20T09:45:28.204Z,34.60
2019-03-20T09:47:56.974Z,34.30
2019-03-20T09:50:26.156Z,34.80
2019-03-20T09:53:01.481Z,33.70
2019-03-20T09:55:30.325Z,36.00
2019-03-20T09:58:10.934Z,34.10
2019-03-20T10:00:29.436Z,32.60
2019-03-20T10:02:58.262Z,31.50
2019-03-20T10:05:27.344Z,29.20
2019-03-20T10:07:58.128Z,32.20
2019-03-20T10:10:39.816Z,29.60
2019-03-20T10:13:12.427Z,29.40
2019-03-20T10:15:44.296Z,32.50
2019-03-20T10:18:13.093Z,33.30
2019-03-20T10:20:43.234Z,29.60
2019-03-20T10:23:13.018Z,29.00
2019-03-20T10:25:44.719Z,29.60
2019-03-20T10:28:10.562Z,28.50
2019-03-20T10:30:39.370Z,31.00
2019-03-20T10:33:09.160Z,31.10
2019-03-20T10:35:38.261Z,29.90
2019-03-20T10:38:07.353Z,29.40
2019-03-20T10:40:36.190Z,28.70
2019-03-20T10:43:07.022Z,29.00
2019-03-20T10:45:35.170Z,29.30
2019-03-20T10:48:03.902Z,28.50
2019-03-20T10:50:33.139Z,30.30
2019-03-20T10:53:03.054Z,30.00
2019-03-20T10:55:33.917Z,30.40
2019-03-20T10:58:02.958Z,31.10
2019-03-20T11:00:32.093Z,32.70
2019-03-20T11:03:00.927Z,34.40
2019-03-20T11:05:30.738Z,31.60
2019-03-20T11:08:01.041Z,30.40
2019-03-20T11:10:29.819Z,32.20
2019-03-20T11:12:59.287Z,30.60
2019-03-20T11:15:30.668Z,31.60
2019-03-20T11:17:59.529Z,30.00
2019-03-20T11:20:29.717Z,32.00
2019-03-20T11:22:58.950Z,33.00
2019-03-20T11:25:29.006Z,35.00
2019-03-20T11:27:59.749Z,30.60
2019-03-20T11:30:30.186Z,32.30
2019-03-20T11:33:00.243Z,30.20
2019-03-20T11:35:30.135Z,31.30
2019-03-20T11:37:59.357Z,30.90
2019-03-20T11:40:29.252Z,31.30
2019-03-20T11:42:58.864Z,30.60
2019-03-20T11:45:27.618Z,30.10
2019-03-20T11:47:56.656Z,28.60
2019-03-20T11:50:30.587Z,29.00
2019-03-20T11:53:00.651Z,30.00
2019-03-20T11:55:29.883Z,29.00
2019-03-20T11:58:00.111Z,28.20
2019-03-20T12:00:29.263Z,27.50
2019-03-20T12:03:14.296Z,26.90
2019-03-20T12:05:58.510Z,27.60
2019-03-20T12:08:29.310Z,29.20
2019-03-20T12:11:00.293Z,28.50
2019-03-20T12:13:31.335Z,29.50
2019-03-20T12:16:00.140Z,28.20
2019-03-20T12:18:30.075Z,28.10
2019-03-20T12:20:59.043Z,30.00
2019-03-20T12:23:29.955Z,29.90
2019-03-20T12:26:00.164Z,27.20
2019-03-20T12:28:29.180Z,28.10
2019-03-20T12:30:58.009Z,27.10
2019-03-20T12:33:27.268Z,26.50
2019-03-20T12:35:57.383Z,26.80
2019-03-20T12:38:26.244Z,26.50
2019-03-20T12:40:57.041Z,27.80
2019-03-20T12:43:26.107Z,28.40
2019-03-20T12:45:54.948Z,27.30
2019-03-20T12:48:27.109Z,26.70
2019-03-20T12:50:56.234Z,27.50
2019-03-20T12:53:28.813Z,27.20
2019-03-20T12:55:59.626Z,27.30
2019-03-20T12:58:38.372Z,28.20
2019-03-20T13:01:10.581Z,26.90
2019-03-20T13:03:40.675Z,26.90
2019-03-20T13:06:09.568Z,29.50
2019-03-20T13:08:44.766Z,28.50
2019-03-20T13:11:14.553Z,27.20
2019-03-20T13:13:43.343Z,28.30
2019-03-20T13:16:12.377Z,27.80
2019-03-20T13:18:43.174Z,27.80
2019-03-20T13:21:12.312Z,27.40
2019-03-20T13:23:42.449Z,27.80
2019-03-20T13:26:11.251Z,28.00
2019-03-20T13:28:40.048Z,26.90
2019-03-20T13:31:17.701Z,27.70
2019-03-20T13:33:48.988Z,29.40
2019-03-20T13:36:15.307Z,28.10
2019-03-20T13:38:44.128Z,29.80
2019-03-20T13:41:12.894Z,30.30
2019-03-20T13:43:41.716Z,29.10
2019-03-20T13:46:10.607Z,29.50
2019-03-20T13:48:41.444Z,29.80
2019-03-20T13:51:10.565Z,30.80
2019-03-20T13:53:39.427Z,30.80
2019-03-20T13:56:08.316Z,31.30
2019-03-20T13:58:37.453Z,31.10
2019-03-20T14:01:06.939Z,30.90
2019-03-20T14:03:35.829Z,29.60
2019-03-20T14:06:05.684Z,30.30
2019-03-20T14:08:34.496Z,28.40
2019-03-20T14:11:05.459Z,29.20
2019-03-20T14:13:35.489Z,30.20
2019-03-20T14:16:07.019Z,30.50
2019-03-20T14:18:35.159Z,29.90
2019-03-20T14:21:04.946Z,29.40
2019-03-20T14:23:33.766Z,32.00
2019-03-20T14:26:02.559Z,29.30
2019-03-20T14:28:31.369Z,27.80
2019-03-20T14:31:00.215Z,29.30
2019-03-20T14:33:29.947Z,29.10
2019-03-20T14:35:58.978Z,29.30
2019-03-20T14:38:28.116Z,29.70
2019-03-20T14:40:56.925Z,29.90
2019-03-20T14:43:25.957Z,29.20
2019-03-20T14:45:54.813Z,31.80
2019-03-20T14:48:23.874Z,29.20
2019-03-20T14:50:52.679Z,30.00
2019-03-20T14:53:21.505Z,29.10
2019-03-20T14:55:50.348Z,30.60
2019-03-20T14:58:19.422Z,29.90
2019-03-20T15:00:48.504Z,29.20
2019-03-20T15:03:17.613Z,29.60
2019-03-20T15:05:46.427Z,30.40
2019-03-20T15:08:15.215Z,30.40
2019-03-20T15:10:46.116Z,31.60
2019-03-20T15:13:14.261Z,30.70
2019-03-20T15:15:46.278Z,30.10
2019-03-20T15:18:15.335Z,30.70
2019-03-20T15:20:44.167Z,31.60
2019-03-20T15:23:13.005Z,32.80
2019-03-20T15:25:42.545Z,31.70
2019-03-20T15:28:12.376Z,30.30
2019-03-20T15:30:41.183Z,30.10
2019-03-20T15:33:10.989Z,30.00
2019-03-20T15:35:39.755Z,30.20
2019-03-20T15:38:08.565Z,30.50
2019-03-20T15:40:37.462Z,32.50
2019-03-20T15:43:07.263Z,32.10
2019-03-20T15:45:37.351Z,31.30
2019-03-20T15:48:06.178Z,31.30
2019-03-20T15:50:34.937Z,30.90
2019-03-20T15:53:08.136Z,32.00
2019-03-20T15:55:36.984Z,33.30
2019-03-20T15:58:07.777Z,32.90
2019-03-20T16:00:36.623Z,34.40
2019-03-20T16:03:08.310Z,34.10
2019-03-20T16:05:37.140Z,34.10
2019-03-20T16:08:06.930Z,34.80
2019-03-20T16:10:36.198Z,35.60
2019-03-20T16:13:05.070Z,36.60
2019-03-20T16:15:33.900Z,36.70
2019-03-20T16:18:03.470Z,36.90
2019-03-20T16:20:32.493Z,37.40
2019-03-20T16:23:01.808Z,37.50
2019-03-20T16:25:30.875Z,38.40
2019-03-20T16:27:59.771Z,39.00
2019-03-20T16:30:28.636Z,38.90
2019-03-20T16:32:57.506Z,40.10
2019-03-20T16:35:26.342Z,41.10
2019-03-20T16:37:56.473Z,41.40
2019-03-20T16:40:25.320Z,41.30
2019-03-20T16:42:54.335Z,43.10
2019-03-20T16:45:25.284Z,42.80
2019-03-20T16:47:54.330Z,43.10
2019-03-20T16:50:24.211Z,42.80
2019-03-20T16:52:53.007Z,42.40
2019-03-20T16:55:21.867Z,42.20
2019-03-20T16:57:50.673Z,42.50
2019-03-20T17:00:24.663Z,42.20
2019-03-20T17:02:53.475Z,42.90
2019-03-20T17:05:23.279Z,42.30
2019-03-20T17:07:52.084Z,42.90
2019-03-20T17:10:25.886Z,43.70
2019-03-20T17:12:54.891Z,43.90
2019-03-20T17:15:24.555Z,44.40
2019-03-20T17:17:53.358Z,44.90
2019-03-20T17:20:22.123Z,45.20
2019-03-20T17:22:51.956Z,45.80
2019-03-20T17:25:20.740Z,45.90
2019-03-20T17:27:51.859Z,46.50
2019-03-20T17:30:21.205Z,46.60
2019-03-20T17:32:49.994Z,46.90
2019-03-20T17:35:24.822Z,47.50
2019-03-20T17:37:54.885Z,49.30
2019-03-20T17:40:25.925Z,49.00
2019-03-20T17:42:54.758Z,51.20
2019-03-20T17:45:23.805Z,52.70
2019-03-20T17:47:53.680Z,53.50
2019-03-20T17:50:23.860Z,54.30
2019-03-20T17:52:52.653Z,54.80
2019-03-20T17:55:21.705Z,55.20
2019-03-20T17:57:51.705Z,56.30
2019-03-20T18:00:29.370Z,57.60
2019-03-20T18:02:59.203Z,58.10
2019-03-20T18:05:28.066Z,58.80
2019-03-20T18:07:57.906Z,60.70
2019-03-20T18:10:26.651Z,62.00
2019-03-20T18:12:56.166Z,62.00
2019-03-20T18:15:24.954Z,62.70
2019-03-20T18:17:53.764Z,62.60
2019-03-20T18:20:22.584Z,62.70
2019-03-20T18:22:51.719Z,64.90
2019-03-20T18:25:21.547Z,65.60
2019-03-20T18:27:51.405Z,65.20
2019-03-20T18:30:21.145Z,66.90
2019-03-20T18:32:49.954Z,67.10
2019-03-20T18:35:19.120Z,67.30
2019-03-20T18:37:48.319Z,68.20
2019-03-20T18:40:17.415Z,69.00
2019-03-20T18:42:46.201Z,69.00
2019-03-20T18:45:17.055Z,69.70
2019-03-20T18:47:45.189Z,69.80
2019-03-20T18:50:16.542Z,70.00
2019-03-20T18:52:45.631Z,70.40
2019-03-20T18:55:14.459Z,70.80
2019-03-20T18:57:44.269Z,70.90
2019-03-20T19:00:21.012Z,71.10
2019-03-20T19:02:50.345Z,71.50
2019-03-20T19:05:33.853Z,71.80
2019-03-20T19:08:02.662Z,71.90
2019-03-20T19:10:31.716Z,72.30
2019-03-20T19:13:00.748Z,72.80
2019-03-20T19:15:29.552Z,73.60
2019-03-20T19:17:58.295Z,74.10
2019-03-20T19:20:27.097Z,73.70
2019-03-20T19:22:55.963Z,73.70
2019-03-20T19:25:25.057Z,73.80
2019-03-20T19:27:53.864Z,74.10
2019-03-20T19:30:22.675Z,74.40
2019-03-20T19:32:51.433Z,75.10
2019-03-20T19:35:20.237Z,76.30
2019-03-20T19:37:49.233Z,76.90
2019-03-20T19:40:18.010Z,76.80
2019-03-20T19:42:47.815Z,76.30
2019-03-20T19:45:16.620Z,76.10
2019-03-20T19:47:45.392Z,75.80
2019-03-20T19:50:14.389Z,75.70
2019-03-20T19:52:45.326Z,75.70
2019-03-20T19:55:14.263Z,75.00
2019-03-20T19:57:42.984Z,75.30
2019-03-20T20:00:13.730Z,76.00
2019-03-20T20:02:42.755Z,76.70
2019-03-20T20:05:15.622Z,77.40
2019-03-20T20:07:40.707Z,78.10
2019-03-20T20:10:09.613Z,78.50
2019-03-20T20:12:38.412Z,79.80
2019-03-20T20:15:10.755Z,80.70
2019-03-20T20:17:41.735Z,80.70
2019-03-20T20:20:12.555Z,80.60
2019-03-20T20:22:41.423Z,80.40
2019-03-20T20:25:12.169Z,80.70
2019-03-20T20:27:41.184Z,80.90
2019-03-20T20:30:12.472Z,81.20
2019-03-20T20:32:40.574Z,81.20
2019-03-20T20:35:09.275Z,81.40
2019-03-20T20:37:38.029Z,81.50
2019-03-20T20:40:07.855Z,81.50
2019-03-20T20:42:42.885Z,81.50
2019-03-20T20:45:05.499Z,81.60
2019-03-20T20:47:34.408Z,80.90
2019-03-20T20:50:08.972Z,80.20
2019-03-20T20:52:37.684Z,79.90
2019-03-20T20:55:07.866Z,80.40
2019-03-20T20:57:36.588Z,81.40
2019-03-20T21:00:11.592Z,82.40
2019-03-20T21:02:41.389Z,82.90
2019-03-20T21:05:11.466Z,83.10
2019-03-20T21:07:40.293Z,83.20
2019-03-20T21:10:11.478Z,82.80
2019-03-20T21:12:39.600Z,82.70
2019-03-20T21:15:19.145Z,83.20
2019-03-20T21:18:39.151Z,84.10
2019-03-20T21:21:08.957Z,84.90
2019-03-20T21:24:14.189Z,84.70
2019-03-20T21:27:24.946Z,84.70
2019-03-20T21:30:34.709Z,85.10
2019-03-20T21:33:05.325Z,85.80
2019-03-20T21:36:28.059Z,86.00
2019-03-20T21:38:58.893Z,85.90
2019-03-20T21:42:10.021Z,84.90
2019-03-20T21:45:16.132Z,84.40
2019-03-20T21:47:46.186Z,84.80
2019-03-20T21:51:02.769Z,85.30
2019-03-20T21:54:19.232Z,85.10
2019-03-20T21:57:08.773Z,84.20
2019-03-20T22:00:23.039Z,83.50
2019-03-20T22:02:52.915Z,83.70
2019-03-20T22:05:56.867Z,83.70
2019-03-20T22:08:27.042Z,83.10
2019-03-20T22:11:33.652Z,84.30
2019-03-20T22:14:07.406Z,84.80
2019-03-20T22:17:29.231Z,85.10
2019-03-20T22:20:15.840Z,84.60
2019-03-20T22:23:35.608Z,86.10
2019-03-20T22:26:19.517Z,86.40
2019-03-20T22:29:21.055Z,87.00
2019-03-20T22:32:21.007Z,87.50
2019-03-20T22:35:46.684Z,87.40
2019-03-20T22:38:37.721Z,88.10
2019-03-20T22:41:26.549Z,88.20
2019-03-20T22:44:00.396Z,88.00
2019-03-20T22:47:13.064Z,87.90
2019-03-20T22:50:16.052Z,88.20
2019-03-20T22:53:35.780Z,87.60
2019-03-20T22:56:32.297Z,86.80
2019-03-20T22:59:02.151Z,86.50
2019-03-20T23:02:06.172Z,86.00
2019-03-20T23:04:39.322Z,86.20
2019-03-20T23:07:10.727Z,86.20
2019-03-20T23:09:40.025Z,85.90
2019-03-20T23:12:13.466Z,85.70
2019-03-20T23:14:43.348Z,86.70
2019-03-20T23:17:13.632Z,88.20
2019-03-20T23:19:44.429Z,88.90
2019-03-20T23:22:13.050Z,89.60
2019-03-20T23:24:43.121Z,89.80
2019-03-20T23:27:22.548Z,89.70
2019-03-20T23:29:52.857Z,89.40
2019-03-20T23:32:23.653Z,88.40
2019-03-20T23:34:53.493Z,88.10
2019-03-20T23:37:23.303Z,88.80
2019-03-20T23:39:54.171Z,88.90
2019-03-20T23:42:24.938Z,88.50
2019-03-20T23:44:55.205Z,88.00
2019-03-20T23:47:31.212Z,87.30
2019-03-20T23:50:01.076Z,87.30
2019-03-20T23:52:30.910Z,87.50
2019-03-20T23:55:01.083Z,87.80
2019-03-20T23:57:30.891Z,87.90
